Impacts METAR Board
IDs:

KIAD - Washington/Dulles In, VA, US

Updated at: 0200 UTC 10 Dec 2022
Potential Impact None Slight Moderate High
Time 09/14Z 09/15Z 09/16Z 09/17Z 09/18Z 09/19Z 09/20Z 09/21Z 09/22Z 09/23Z 10/00Z 10/01Z 10/02Z
Temp41 44 46 48 49 49 49 49 42 39 42 37 36
Dewpt27 28 28 28 28 28 27 27 26 26 27 26 26
Altim30.31 30.32 30.31 30.29 30.27 30.25 30.24 30.24 30.25 30.25 30.26 30.28 30.29
VIS10 10 10 10 10 10 10 10 10 10 10 10 10
CIG-- -- -- -- -- -- -- -- -- -- -- -- --
CoverSCTCLRFEWCLRCLRSCTFEWCLRFEWCLRCLRCLRCLR
FltCatVFRVFRVFRVFRVFRVFRVFRVFRVFRVFRVFRVFRVFR
WX--------------------------
WDir202036003403040000203020
WSpd6 6 6 6 5 5 6 0 0 0 6 4 3
WGst-- -- -- -- -- -- -- -- -- -- -- -- --
Raw hourly METARs
KIAD 091352Z 02006KT 10SM SCT050 05/M03 A3031 RMK AO2 SLP265 T00501028
KIAD 091452Z 02006KT 10SM CLR 07/M02 A3032 RMK AO2 SLP267 T00671022 53005
KIAD 091552Z 36006KT 10SM FEW050 08/M02 A3031 RMK AO2 SLP265 T00781022
KIAD 091652Z VRB06KT 10SM CLR 09/M02 A3029 RMK AO2 SLP257 T00891022
KIAD 091752Z 34005KT 10SM CLR 09/M02 A3027 RMK AO2 SLP251 T00941022 10094 20033 58014
KIAD 091852Z 03005KT 10SM SCT120 09/M02 A3025 RMK AO2 SLP246 T00941022
KIAD 091952Z 04006KT 10SM FEW250 09/M03 A3024 RMK AO2 SLP240 T00941028
KIAD 092052Z 00000KT 10SM CLR 09/M03 A3024 RMK AO2 SLP241 T00941028 55012
KIAD 092152Z 00000KT 10SM FEW120 06/M03 A3025 RMK AO2 SLP244 T00561033
KIAD 092252Z 00000KT 10SM CLR 04/M03 A3025 RMK AO2 SLP245 T00391033
KIAD 092352Z 02006KT 10SM CLR 06/M03 A3026 RMK AO2 SLP250 T00561028 10100 20033 53008
KIAD 100052Z 03004KT 10SM CLR 03/M03 A3028 RMK AO2 SLP256 T00281033
KIAD 100152Z 02003KT 10SM CLR 02/M03 A3029 RMK AO2 SLP259 T00221033



Page loaded:  02:29 UTC  |   06:29 PM Pacific  |   07:29 PM Mountain  |   08:29 PM Central  |   09:29 PM Eastern

 

ADVISORIES

FORECASTS

FORECASTS

OBSERVATIONS

USER TOOLS

ABOUT US